createdAt,value
2023-02-06T00:00:34.491Z,0.0
2023-02-06T00:01:34.247Z,0.0
2023-02-06T00:02:33.941Z,0.0
2023-02-06T00:03:34.576Z,0.1
2023-02-06T00:04:34.411Z,0.0
2023-02-06T00:05:34.702Z,0.2
2023-02-06T00:06:34.043Z,0.1
2023-02-06T00:07:33.865Z,0.3
2023-02-06T00:08:34.801Z,0.0
2023-02-06T00:09:34.354Z,0.4
2023-02-06T00:10:34.306Z,0.0
2023-02-06T00:11:33.987Z,0.2
2023-02-06T00:12:34.949Z,0.5
2023-02-06T00:13:34.821Z,0.2
2023-02-06T00:14:34.456Z,0.3
2023-02-06T00:15:34.652Z,0.0
2023-02-06T00:16:34.493Z,0.1
2023-02-06T00:17:35.172Z,0.1
2023-02-06T00:18:34.498Z,0.1
2023-02-06T00:19:34.331Z,0.2
2023-02-06T00:20:34.163Z,0.2
2023-02-06T00:21:33.960Z,0.3
2023-02-06T00:22:35.028Z,0.0
2023-02-06T00:23:34.456Z,0.4
2023-02-06T00:24:34.280Z,0.0
2023-02-06T00:25:34.424Z,0.2
2023-02-06T00:26:33.904Z,0.3
2023-02-06T00:27:34.869Z,0.1
2023-02-06T00:28:34.502Z,0.1
2023-02-06T00:29:34.272Z,0.0
2023-02-06T00:30:34.068Z,0.0
2023-02-06T00:31:33.893Z,0.0
2023-02-06T00:32:34.635Z,0.8
2023-02-06T00:33:34.743Z,0.2
2023-02-06T00:34:34.257Z,0.3
2023-02-06T00:35:34.424Z,0.2
2023-02-06T00:36:33.894Z,0.0
2023-02-06T00:37:34.547Z,0.3
2023-02-06T00:38:35.886Z,0.0
2023-02-06T00:39:34.204Z,0.0
2023-02-06T00:40:34.013Z,0.3
2023-02-06T00:41:34.783Z,0.1
2023-02-06T00:42:34.585Z,0.0
2023-02-06T00:43:34.406Z,0.4
2023-02-06T00:44:34.262Z,0.2
2023-02-06T00:45:34.486Z,0.0
2023-02-06T00:46:34.771Z,0.1
2023-02-06T00:47:34.534Z,0.4
2023-02-06T00:48:34.522Z,0.4
2023-02-06T00:49:34.215Z,0.1
2023-02-06T00:50:34.213Z,0.3
2023-02-06T00:51:34.717Z,0.2
2023-02-06T00:52:34.502Z,0.2
2023-02-06T00:53:34.328Z,0.2
2023-02-06T00:54:34.155Z,0.0
2023-02-06T00:55:34.232Z,0.0
2023-02-06T00:56:34.730Z,0.2
2023-02-06T00:57:34.413Z,0.4
2023-02-06T00:58:34.242Z,0.0
2023-02-06T00:59:34.075Z,0.2
2023-02-06T01:00:34.078Z,0.1
2023-02-06T01:01:34.700Z,0.1
2023-02-06T01:02:34.566Z,0.5
2023-02-06T01:03:34.352Z,0.1
2023-02-06T01:04:34.160Z,0.3
2023-02-06T01:05:34.356Z,0.0
2023-02-06T01:06:34.573Z,0.1
2023-02-06T01:07:38.338Z,0.2
2023-02-06T01:08:34.242Z,0.0
2023-02-06T01:09:34.053Z,0.0
2023-02-06T01:10:34.864Z,0.1
2023-02-06T01:11:34.809Z,0.1
2023-02-06T01:12:34.691Z,0.1
2023-02-06T01:13:34.240Z,0.5
2023-02-06T01:14:34.034Z,0.0
2023-02-06T01:15:34.204Z,0.1
2023-02-06T01:16:34.570Z,0.0
2023-02-06T01:17:34.346Z,0.3
2023-02-06T01:18:34.208Z,0.4
2023-02-06T01:19:33.988Z,0.1
2023-02-06T01:20:34.802Z,0.4
2023-02-06T01:21:35.423Z,0.2
2023-02-06T01:22:35.164Z,0.0
2023-02-06T01:23:34.226Z,0.4
2023-02-06T01:24:34.882Z,0.4
2023-02-06T01:25:35.593Z,0.1
2023-02-06T01:26:34.396Z,0.2
2023-02-06T01:27:35.568Z,0.2
2023-02-06T01:28:37.191Z,0.2
2023-02-06T01:29:33.920Z,0.4
2023-02-06T01:30:34.647Z,0.3
2023-02-06T01:31:34.500Z,0.3
2023-02-06T01:32:37.525Z,0.2
2023-02-06T01:33:34.103Z,0.1
2023-02-06T01:34:34.023Z,0.1
2023-02-06T01:35:34.920Z,0.2
2023-02-06T01:36:34.451Z,0.2
2023-02-06T01:37:34.816Z,0.0
2023-02-06T01:38:34.090Z,0.1
2023-02-06T01:39:34.996Z,0.1
2023-02-06T01:40:34.628Z,0.1
2023-02-06T01:41:34.436Z,0.1
2023-02-06T01:42:34.658Z,0.2
2023-02-06T01:43:37.864Z,0.0
2023-02-06T01:44:34.722Z,0.2
2023-02-06T01:45:39.647Z,0.5
2023-02-06T01:46:35.369Z,0.0
2023-02-06T01:47:34.141Z,0.2
2023-02-06T01:48:41.855Z,0.4
2023-02-06T01:49:41.781Z,0.0
2023-02-06T01:50:34.980Z,0.1
2023-02-06T01:51:34.701Z,0.9
2023-02-06T01:52:34.359Z,0.0
2023-02-06T01:53:34.449Z,0.1
2023-02-06T01:54:34.827Z,0.0
2023-02-06T01:55:36.536Z,0.0
2023-02-06T01:56:38.257Z,0.1
2023-02-06T01:57:34.242Z,0.2
2023-02-06T01:58:39.154Z,0.0
2023-02-06T01:59:35.656Z,0.3
2023-02-06T02:00:34.614Z,0.0
2023-02-06T02:01:34.372Z,0.4
2023-02-06T02:02:35.346Z,0.0
2023-02-06T02:03:35.263Z,0.2
2023-02-06T02:04:34.609Z,0.2
2023-02-06T02:05:35.108Z,0.1
2023-02-06T02:06:34.280Z,0.0
2023-02-06T02:07:39.005Z,0.2
2023-02-06T02:08:37.769Z,0.1
2023-02-06T02:09:34.589Z,0.3
2023-02-06T02:10:34.416Z,0.4
2023-02-06T02:11:35.521Z,0.0
2023-02-06T02:12:34.099Z,0.3
2023-02-06T02:13:34.099Z,0.0
2023-02-06T02:14:35.170Z,0.2
2023-02-06T02:15:39.328Z,0.1
2023-02-06T02:16:54.087Z,0.3
2023-02-06T02:17:44.600Z,0.0
2023-02-06T02:18:39.707Z,0.1
2023-02-06T02:19:51.079Z,0.2
2023-02-06T02:20:48.089Z,0.2
2023-02-06T02:21:52.566Z,0.2
2023-02-06T02:22:38.920Z,0.0
2023-02-06T02:23:53.672Z,0.2
2023-02-06T02:24:45.084Z,0.3
2023-02-06T02:25:48.114Z,0.0
2023-02-06T02:26:56.578Z,0.3
2023-02-06T02:27:50.589Z,0.2
2023-02-06T02:28:39.601Z,0.1
2023-02-06T02:29:54.081Z,0.7
2023-02-06T02:30:52.571Z,0.5
2023-02-06T02:31:42.138Z,0.0
2023-02-06T02:32:50.566Z,0.0
2023-02-06T02:33:45.576Z,0.2
2023-02-06T02:34:45.097Z,0.3
2023-02-06T02:35:45.127Z,0.3
2023-02-06T02:36:39.517Z,0.2
2023-02-06T02:37:42.706Z,0.3
2023-02-06T02:38:42.554Z,0.0
2023-02-06T02:39:39.433Z,0.0
2023-02-06T02:40:48.067Z,0.0
2023-02-06T02:41:44.233Z,0.3
2023-02-06T02:42:38.872Z,0.0
2023-02-06T02:43:39.503Z,0.5
2023-02-06T02:44:37.926Z,0.1
2023-02-06T02:45:39.314Z,0.2
2023-02-06T02:46:35.519Z,0.4
2023-02-06T02:47:39.680Z,0.3
2023-02-06T02:48:39.527Z,0.1
2023-02-06T02:49:36.250Z,0.1
2023-02-06T02:50:34.767Z,0.0
2023-02-06T02:51:35.541Z,0.3
2023-02-06T02:52:33.932Z,0.5
2023-02-06T02:53:34.588Z,0.2
2023-02-06T02:54:34.424Z,0.3
2023-02-06T02:55:34.782Z,0.0
2023-02-06T02:56:34.163Z,0.1
2023-02-06T02:57:35.464Z,0.1
2023-02-06T02:58:34.689Z,0.2
2023-02-06T02:59:35.729Z,0.1
2023-02-06T03:00:37.698Z,0.5
2023-02-06T03:01:44.576Z,0.2
2023-02-06T03:02:36.552Z,0.0
2023-02-06T03:03:36.431Z,0.4
2023-02-06T03:04:39.209Z,0.2
2023-02-06T03:05:37.387Z,0.1
2023-02-06T03:06:50.601Z,0.0
2023-02-06T03:07:39.570Z,0.2
2023-02-06T03:08:39.395Z,0.6
2023-02-06T03:09:57.081Z,0.0
2023-02-06T03:10:56.609Z,0.4
2023-02-06T03:11:38.002Z,0.2
2023-02-06T03:12:39.500Z,0.2
2023-02-06T03:13:51.059Z,0.1
2023-02-06T03:14:39.119Z,0.0
2023-02-06T03:15:39.035Z,0.1
2023-02-06T03:16:42.633Z,0.0
2023-02-06T03:17:40.752Z,0.0
2023-02-06T03:18:39.274Z,0.4
2023-02-06T03:19:41.035Z,0.5
2023-02-06T03:20:36.008Z,0.1
2023-02-06T03:21:35.748Z,0.4
2023-02-06T03:22:36.078Z,0.2
2023-02-06T03:23:37.742Z,0.0
2023-02-06T03:24:36.839Z,0.4
2023-02-06T03:25:38.809Z,0.5
2023-02-06T03:26:35.129Z,0.0
2023-02-06T03:27:37.021Z,0.0
2023-02-06T03:28:37.141Z,0.0
2023-02-06T03:29:35.667Z,0.5
2023-02-06T03:30:34.309Z,0.6
2023-02-06T03:31:36.669Z,0.1
2023-02-06T03:32:37.950Z,0.1
2023-02-06T03:33:36.281Z,0.1
2023-02-06T03:34:38.942Z,0.2
2023-02-06T03:35:35.529Z,0.0
2023-02-06T03:36:35.121Z,0.1
2023-02-06T03:37:34.817Z,0.0
2023-02-06T03:38:34.329Z,0.5
2023-02-06T03:39:34.229Z,0.6
2023-02-06T03:40:34.493Z,0.4
2023-02-06T03:41:36.185Z,0.2
2023-02-06T03:42:37.051Z,0.6
2023-02-06T03:43:34.326Z,0.2
2023-02-06T03:44:36.248Z,0.1
2023-02-06T03:45:40.429Z,0.2
2023-02-06T03:46:35.611Z,0.4
2023-02-06T03:47:37.023Z,0.5
2023-02-06T03:48:36.300Z,0.7
2023-02-06T03:49:36.908Z,0.3
2023-02-06T03:50:35.670Z,0.2
2023-02-06T03:51:38.063Z,0.2
2023-02-06T03:52:42.794Z,0.3
2023-02-06T03:53:34.671Z,0.4
2023-02-06T03:54:36.327Z,0.3
2023-02-06T03:55:36.421Z,0.1
2023-02-06T03:56:37.304Z,0.0
2023-02-06T03:57:35.075Z,0.4
2023-02-06T03:58:34.292Z,0.1
2023-02-06T03:59:33.939Z,0.2
2023-02-06T04:00:36.543Z,0.2
2023-02-06T04:01:38.414Z,0.3
2023-02-06T04:02:34.420Z,0.1
2023-02-06T04:03:34.199Z,0.2
2023-02-06T04:04:35.826Z,0.0
2023-02-06T04:05:35.100Z,0.5
2023-02-06T04:06:34.447Z,0.4
2023-02-06T04:07:35.333Z,0.5
2023-02-06T04:08:34.096Z,0.4
2023-02-06T04:09:33.918Z,0.2
2023-02-06T04:10:34.586Z,0.4
2023-02-06T04:11:34.345Z,0.1
2023-02-06T04:12:34.227Z,0.0
2023-02-06T04:13:33.977Z,0.0
2023-02-06T04:14:34.881Z,0.2
2023-02-06T04:15:34.817Z,0.1
2023-02-06T04:16:34.445Z,0.3
2023-02-06T04:17:49.702Z,0.2
2023-02-06T04:18:33.952Z,0.3
2023-02-06T04:19:34.938Z,0.7
2023-02-06T04:20:34.498Z,0.5
2023-02-06T04:21:34.313Z,0.2
2023-02-06T04:22:34.161Z,0.9
2023-02-06T04:23:34.069Z,0.2
2023-02-06T04:24:34.653Z,0.6
2023-02-06T04:25:34.851Z,0.3
2023-02-06T04:26:34.266Z,0.3
2023-02-06T04:27:34.094Z,0.5
2023-02-06T04:28:33.950Z,0.2
2023-02-06T04:29:34.655Z,0.4
2023-02-06T04:30:34.458Z,0.4
2023-02-06T04:31:34.262Z,0.4
2023-02-06T04:32:34.055Z,0.5
2023-02-06T04:33:34.758Z,0.5
2023-02-06T04:34:35.175Z,0.3
2023-02-06T04:35:34.690Z,0.6
2023-02-06T04:36:34.245Z,0.0
2023-02-06T04:37:34.006Z,0.3
2023-02-06T04:38:34.657Z,0.4
2023-02-06T04:39:34.494Z,0.9
2023-02-06T04:40:34.462Z,0.5
2023-02-06T04:41:34.242Z,0.1
2023-02-06T04:42:34.972Z,0.3
2023-02-06T04:43:34.733Z,0.4
2023-02-06T04:44:34.693Z,0.7
2023-02-06T04:45:34.862Z,0.4
2023-02-06T04:46:34.166Z,0.0
2023-02-06T04:47:34.804Z,0.4
2023-02-06T04:48:35.540Z,0.5
2023-02-06T04:49:34.405Z,0.1
2023-02-06T04:50:34.287Z,0.3
2023-02-06T04:51:34.355Z,0.0
2023-02-06T04:52:34.889Z,0.2
2023-02-06T04:53:34.678Z,0.3
2023-02-06T04:54:34.375Z,0.0
2023-02-06T04:55:34.929Z,0.5
2023-02-06T04:56:34.026Z,0.0
2023-02-06T04:57:34.749Z,0.4
2023-02-06T04:58:34.843Z,0.2
2023-02-06T04:59:34.370Z,0.5
2023-02-06T05:00:34.185Z,0.4
2023-02-06T05:01:35.029Z,0.3
2023-02-06T05:02:34.925Z,0.7
2023-02-06T05:03:34.528Z,0.7
2023-02-06T05:04:34.354Z,0.2
2023-02-06T05:05:34.530Z,0.2
2023-02-06T05:06:34.894Z,0.3
2023-02-06T05:07:34.780Z,0.5
2023-02-06T05:08:34.472Z,0.6
2023-02-06T05:09:34.253Z,0.0
2023-02-06T05:10:34.079Z,0.2
2023-02-06T05:11:34.823Z,0.3
2023-02-06T05:12:34.777Z,0.6
2023-02-06T05:13:34.577Z,0.1
2023-02-06T05:14:34.316Z,0.4
2023-02-06T05:15:35.044Z,0.1
2023-02-06T05:16:34.732Z,0.1
2023-02-06T05:17:34.911Z,0.1
2023-02-06T05:18:34.372Z,0.2
2023-02-06T05:19:34.194Z,0.4
2023-02-06T05:20:34.101Z,0.6
2023-02-06T05:21:34.838Z,0.7
2023-02-06T05:22:34.749Z,0.4
2023-02-06T05:23:34.491Z,0.5
2023-02-06T05:24:34.224Z,0.2
2023-02-06T05:25:35.213Z,0.0
2023-02-06T05:26:34.723Z,0.3
2023-02-06T05:27:34.561Z,0.4
2023-02-06T05:28:34.415Z,0.2
2023-02-06T05:29:34.206Z,0.3
2023-02-06T05:30:34.127Z,0.3
2023-02-06T05:31:34.866Z,0.1
2023-02-06T05:32:34.517Z,0.3
2023-02-06T05:33:34.341Z,0.4
2023-02-06T05:34:34.201Z,0.0
2023-02-06T05:35:34.381Z,0.1
2023-02-06T05:36:34.925Z,0.8
2023-02-06T05:37:34.493Z,0.6
2023-02-06T05:38:34.291Z,0.4
2023-02-06T05:39:34.131Z,1.0
2023-02-06T05:40:33.968Z,0.3
2023-02-06T05:41:34.684Z,0.3
2023-02-06T05:42:34.830Z,0.1
2023-02-06T05:43:34.534Z,0.2
2023-02-06T05:44:34.107Z,0.2
2023-02-06T05:45:36.060Z,0.3
2023-02-06T05:46:34.630Z,0.1
2023-02-06T05:47:34.398Z,0.3
2023-02-06T05:48:34.410Z,0.5
2023-02-06T05:49:34.023Z,0.6
2023-02-06T05:50:34.798Z,0.5
2023-02-06T05:51:34.590Z,0.5
2023-02-06T05:52:34.468Z,0.2
2023-02-06T05:53:34.197Z,0.2
2023-02-06T05:54:34.070Z,0.6
2023-02-06T05:55:35.026Z,0.7
2023-02-06T05:56:34.525Z,0.1
2023-02-06T05:57:34.314Z,0.6
2023-02-06T05:58:34.150Z,0.4
2023-02-06T05:59:33.942Z,0.5
2023-02-06T06:00:34.747Z,0.3
2023-02-06T06:01:34.593Z,0.1
2023-02-06T06:02:34.383Z,0.6
2023-02-06T06:03:34.235Z,0.4
2023-02-06T06:04:33.969Z,0.8
2023-02-06T06:05:34.912Z,0.0
2023-02-06T06:06:34.462Z,0.1
2023-02-06T06:07:34.365Z,0.0
2023-02-06T06:08:34.089Z,0.1
2023-02-06T06:09:33.893Z,0.4
2023-02-06T06:10:34.680Z,0.7
2023-02-06T06:11:34.451Z,0.1
2023-02-06T06:12:34.275Z,0.5
2023-02-06T06:13:34.035Z,0.1
2023-02-06T06:14:33.951Z,0.3
2023-02-06T06:15:34.943Z,0.5
2023-02-06T06:16:34.357Z,0.4
2023-02-06T06:17:34.271Z,0.1
2023-02-06T06:18:34.041Z,0.7
2023-02-06T06:19:34.770Z,0.1
2023-02-06T06:20:34.578Z,0.6
2023-02-06T06:21:34.407Z,0.2
2023-02-06T06:22:34.185Z,0.7
2023-02-06T06:23:34.123Z,0.3
2023-02-06T06:24:34.714Z,0.4
2023-02-06T06:25:35.156Z,0.5
2023-02-06T06:26:34.457Z,0.6
2023-02-06T06:27:34.227Z,0.2
2023-02-06T06:28:35.586Z,0.7
2023-02-06T06:29:34.714Z,0.3
2023-02-06T06:30:35.737Z,0.4
2023-02-06T06:31:34.459Z,0.7
2023-02-06T06:32:34.180Z,0.8
2023-02-06T06:33:34.031Z,0.2
2023-02-06T06:34:34.743Z,0.4
2023-02-06T06:35:34.830Z,0.4
2023-02-06T06:36:34.295Z,0.9
2023-02-06T06:37:34.115Z,0.9
2023-02-06T06:38:33.970Z,0.4
2023-02-06T06:39:34.701Z,0.7
2023-02-06T06:40:34.507Z,1.0
2023-02-06T06:41:34.310Z,0.7
2023-02-06T06:42:34.240Z,0.4
2023-02-06T06:43:33.971Z,0.9
2023-02-06T06:44:34.566Z,0.6
2023-02-06T06:45:34.986Z,0.0
2023-02-06T06:46:34.249Z,0.5
2023-02-06T06:47:34.242Z,0.5
2023-02-06T06:48:34.950Z,0.5
2023-02-06T06:49:34.680Z,0.5
2023-02-06T06:50:34.531Z,0.4
2023-02-06T06:51:34.355Z,0.6
2023-02-06T06:52:34.211Z,0.0
2023-02-06T06:53:33.945Z,0.6
2023-02-06T06:54:34.568Z,0.8
2023-02-06T06:55:34.693Z,0.6
2023-02-06T06:56:34.249Z,0.5
2023-02-06T06:57:34.025Z,0.4
2023-02-06T06:58:34.745Z,0.4
2023-02-06T06:59:34.528Z,0.5
2023-02-06T07:00:34.388Z,0.6
2023-02-06T07:01:34.217Z,0.2
2023-02-06T07:02:34.913Z,0.6
2023-02-06T07:03:34.921Z,0.4
2023-02-06T07:04:34.502Z,0.5
2023-02-06T07:05:34.641Z,0.5
2023-02-06T07:06:34.154Z,0.4
2023-02-06T07:07:34.031Z,0.6
2023-02-06T07:08:34.695Z,0.3
2023-02-06T07:09:34.488Z,0.8
2023-02-06T07:10:34.350Z,0.3
2023-02-06T07:11:34.146Z,0.5
2023-02-06T07:12:34.059Z,0.5
2023-02-06T07:13:34.606Z,0.4
2023-02-06T07:14:34.539Z,0.6
2023-02-06T07:15:34.438Z,0.3
2023-02-06T07:16:34.174Z,0.4
2023-02-06T07:17:33.996Z,0.5
2023-02-06T07:18:34.831Z,0.5
2023-02-06T07:19:34.461Z,0.6
2023-02-06T07:20:34.300Z,0.6
2023-02-06T07:21:34.142Z,0.9
2023-02-06T07:22:33.908Z,0.8
2023-02-06T07:23:37.547Z,1.4
2023-02-06T07:24:34.404Z,0.2
2023-02-06T07:25:34.550Z,0.3
2023-02-06T07:26:34.009Z,0.5
2023-02-06T07:27:34.762Z,0.4
2023-02-06T07:28:34.537Z,0.9
2023-02-06T07:29:34.337Z,0.6
2023-02-06T07:30:34.219Z,0.6
2023-02-06T07:31:34.196Z,1.1
2023-02-06T07:32:35.145Z,0.9
2023-02-06T07:33:34.526Z,0.7
2023-02-06T07:34:34.344Z,0.8
2023-02-06T07:35:34.454Z,0.9
2023-02-06T07:36:34.297Z,0.9
2023-02-06T07:37:34.720Z,0.8
2023-02-06T07:38:34.505Z,0.7
2023-02-06T07:39:34.282Z,0.8
2023-02-06T07:40:44.779Z,0.5
2023-02-06T07:41:34.756Z,0.6
2023-02-06T07:42:34.578Z,0.8
2023-02-06T07:43:34.430Z,0.5
2023-02-06T07:44:34.289Z,0.9
2023-02-06T07:45:34.275Z,0.4
2023-02-06T07:46:34.784Z,0.6
2023-02-06T07:47:34.537Z,0.5
2023-02-06T07:48:34.373Z,0.4
2023-02-06T07:49:34.226Z,0.6
2023-02-06T07:50:34.256Z,0.7
2023-02-06T07:51:34.653Z,0.4
2023-02-06T07:52:34.460Z,0.6
2023-02-06T07:53:35.024Z,0.7
2023-02-06T07:54:34.172Z,0.6
2023-02-06T07:55:37.029Z,0.6
2023-02-06T07:56:34.800Z,0.6
2023-02-06T07:57:34.490Z,0.5
2023-02-06T07:58:34.326Z,1.0
2023-02-06T07:59:34.188Z,1.1
2023-02-06T08:00:34.150Z,0.8
2023-02-06T08:01:35.061Z,0.6
2023-02-06T08:02:34.454Z,0.9
2023-02-06T08:03:34.284Z,0.8
2023-02-06T08:04:34.782Z,0.4
2023-02-06T08:05:37.228Z,0.8
2023-02-06T08:06:34.611Z,0.7
2023-02-06T08:07:34.439Z,0.8
2023-02-06T08:08:34.290Z,0.5
2023-02-06T08:09:34.033Z,0.7
2023-02-06T08:10:36.598Z,0.5
2023-02-06T08:11:34.514Z,0.4
2023-02-06T08:12:34.348Z,0.9
2023-02-06T08:13:34.189Z,0.4
2023-02-06T08:14:34.045Z,1.2
2023-02-06T08:15:35.145Z,0.8
2023-02-06T08:16:34.646Z,0.6
2023-02-06T08:17:34.355Z,0.2
2023-02-06T08:18:34.255Z,0.5
2023-02-06T08:19:33.981Z,0.5
2023-02-06T08:20:34.751Z,0.6
2023-02-06T08:21:34.466Z,0.8
2023-02-06T08:22:34.349Z,0.9
2023-02-06T08:23:34.129Z,0.6
2023-02-06T08:24:33.943Z,0.2
2023-02-06T08:25:35.107Z,0.8
2023-02-06T08:26:34.527Z,0.8
2023-02-06T08:27:34.406Z,1.1
2023-02-06T08:28:34.531Z,0.9
2023-02-06T08:29:34.033Z,0.8
2023-02-06T08:30:34.709Z,0.9
2023-02-06T08:31:38.201Z,1.0
2023-02-06T08:32:34.530Z,0.6
2023-02-06T08:33:34.053Z,1.1
2023-02-06T08:34:35.015Z,0.7
2023-02-06T08:35:34.923Z,0.7
2023-02-06T08:36:34.893Z,1.0
2023-02-06T08:37:34.251Z,0.5
2023-02-06T08:38:34.379Z,1.1
2023-02-06T08:39:34.728Z,0.6
2023-02-06T08:40:34.583Z,0.9
2023-02-06T08:41:36.120Z,0.8
2023-02-06T08:42:34.230Z,0.9
2023-02-06T08:43:34.023Z,1.1
2023-02-06T08:44:34.772Z,0.8
2023-02-06T08:45:34.974Z,1.3
2023-02-06T08:46:34.374Z,1.0
2023-02-06T08:47:34.255Z,1.0
2023-02-06T08:48:34.070Z,1.0
2023-02-06T08:49:34.705Z,0.9
2023-02-06T08:50:34.671Z,0.6
2023-02-06T08:51:34.518Z,1.3
2023-02-06T08:52:34.129Z,1.0
2023-02-06T08:53:34.080Z,0.9
2023-02-06T08:54:36.867Z,0.9
2023-02-06T08:55:34.530Z,0.8
2023-02-06T08:56:34.904Z,1.5
2023-02-06T08:57:34.091Z,0.7
2023-02-06T08:58:34.694Z,1.1
2023-02-06T08:59:34.630Z,0.6
2023-02-06T09:00:34.585Z,0.8
2023-02-06T09:01:34.961Z,0.7
2023-02-06T09:02:34.100Z,0.9
2023-02-06T09:03:35.282Z,1.3
2023-02-06T09:04:34.010Z,1.3
2023-02-06T09:05:34.344Z,1.0
2023-02-06T09:06:35.731Z,1.0
2023-02-06T09:07:34.529Z,0.8
2023-02-06T09:08:34.270Z,0.8
2023-02-06T09:09:34.188Z,1.0
2023-02-06T09:10:33.926Z,1.0
2023-02-06T09:11:34.539Z,1.0
2023-02-06T09:12:34.364Z,1.1
2023-02-06T09:13:34.193Z,1.6
2023-02-06T09:14:34.025Z,1.3
2023-02-06T09:15:35.275Z,1.1
2023-02-06T09:16:34.657Z,0.9
2023-02-06T09:17:34.402Z,1.0
2023-02-06T09:18:34.544Z,1.2
2023-02-06T09:19:34.027Z,1.0
2023-02-06T09:20:34.756Z,1.0
2023-02-06T09:21:35.033Z,1.0
2023-02-06T09:22:34.332Z,0.6
2023-02-06T09:23:34.174Z,1.3
2023-02-06T09:24:34.061Z,0.6
2023-02-06T09:25:37.612Z,1.3
2023-02-06T09:26:37.541Z,0.8
2023-02-06T09:27:34.878Z,0.8
2023-02-06T09:28:34.235Z,1.7
2023-02-06T09:29:34.130Z,1.7
2023-02-06T09:30:34.665Z,1.5
2023-02-06T09:31:35.861Z,1.4
2023-02-06T09:32:34.305Z,1.4
2023-02-06T09:33:34.279Z,1.0
2023-02-06T09:34:34.006Z,1.5
2023-02-06T09:35:35.319Z,1.3
2023-02-06T09:36:34.508Z,1.3
2023-02-06T09:37:34.272Z,1.3
2023-02-06T09:38:34.489Z,1.5
2023-02-06T09:39:33.951Z,1.7
2023-02-06T09:40:34.959Z,1.5
2023-02-06T09:41:39.334Z,1.3
2023-02-06T09:42:35.506Z,1.0
2023-02-06T09:43:34.605Z,0.9
2023-02-06T09:44:41.169Z,1.4
2023-02-06T09:45:34.984Z,1.4
2023-02-06T09:46:35.511Z,1.5
2023-02-06T09:47:40.357Z,0.8
2023-02-06T09:48:35.556Z,0.8
2023-02-06T09:49:36.903Z,1.2
2023-02-06T09:50:57.081Z,1.2
2023-02-06T09:51:45.147Z,1.4
2023-02-06T09:52:39.120Z,0.9
2023-02-06T09:53:38.838Z,1.2
2023-02-06T09:54:39.565Z,1.7
2023-02-06T09:55:45.363Z,1.5
2023-02-06T09:56:48.045Z,1.6
2023-02-06T09:57:37.936Z,0.7
2023-02-06T09:58:53.554Z,1.4
2023-02-06T09:59:36.317Z,1.2
2023-02-06T10:00:48.059Z,2.0
2023-02-06T10:01:39.124Z,1.7
2023-02-06T10:02:41.629Z,1.7
2023-02-06T10:03:53.005Z,1.5
2023-02-06T10:04:41.322Z,0.8
2023-02-06T10:05:57.148Z,1.0
2023-02-06T10:06:42.108Z,1.2
2023-02-06T10:07:56.649Z,1.4
2023-02-06T10:08:42.607Z,1.5
2023-02-06T10:09:38.732Z,1.2
2023-02-06T10:10:36.666Z,1.3
2023-02-06T10:11:44.585Z,0.8
2023-02-06T10:12:50.624Z,1.0
2023-02-06T10:13:39.671Z,1.6
2023-02-06T10:14:43.014Z,1.9
2023-02-06T10:15:45.394Z,1.2
2023-02-06T10:16:39.058Z,1.8
2023-02-06T10:17:41.599Z,0.9
2023-02-06T10:18:39.619Z,1.1
2023-02-06T10:19:42.144Z,0.5
2023-02-06T10:20:36.878Z,0.9
2023-02-06T10:21:38.926Z,1.0
2023-02-06T10:22:44.349Z,0.8
2023-02-06T10:23:51.529Z,1.2
2023-02-06T10:24:39.307Z,1.5
2023-02-06T10:25:42.210Z,1.2
2023-02-06T10:26:36.854Z,1.2
2023-02-06T10:27:34.274Z,1.1
2023-02-06T10:28:34.570Z,1.3
2023-02-06T10:29:34.658Z,1.3
2023-02-06T10:30:53.631Z,0.6
2023-02-06T10:31:44.630Z,0.7
2023-02-06T10:32:39.668Z,1.0
2023-02-06T10:33:44.207Z,1.6
2023-02-06T10:34:54.122Z,1.0
2023-02-06T10:35:39.393Z,1.6
2023-02-06T10:36:50.582Z,1.1
2023-02-06T10:37:42.105Z,1.4
2023-02-06T10:38:54.117Z,1.2
2023-02-06T10:39:39.320Z,1.1
2023-02-06T10:40:38.312Z,1.7
2023-02-06T10:41:41.629Z,1.4
2023-02-06T10:42:45.155Z,1.4
2023-02-06T10:43:45.118Z,1.3
2023-02-06T10:44:51.245Z,1.1
2023-02-06T10:45:44.603Z,1.3
2023-02-06T10:46:38.893Z,1.0
2023-02-06T10:47:42.129Z,1.2
2023-02-06T10:48:53.447Z,1.8
2023-02-06T10:49:44.922Z,1.9
2023-02-06T10:50:36.565Z,1.4
2023-02-06T10:51:36.389Z,1.0
2023-02-06T10:52:35.268Z,1.4
2023-02-06T10:53:35.823Z,1.7
2023-02-06T10:54:36.775Z,1.5
2023-02-06T10:55:42.207Z,1.4
2023-02-06T10:56:41.921Z,1.2
2023-02-06T10:57:34.536Z,1.6
2023-02-06T10:58:36.380Z,1.4
2023-02-06T10:59:38.217Z,1.2
2023-02-06T11:00:34.531Z,1.4
2023-02-06T11:01:36.224Z,1.5
2023-02-06T11:02:47.504Z,1.3
2023-02-06T11:03:37.533Z,1.5
2023-02-06T11:04:36.883Z,1.4
2023-02-06T11:05:34.795Z,1.9
2023-02-06T11:06:34.793Z,1.8
2023-02-06T11:07:39.538Z,1.3
2023-02-06T11:08:39.109Z,1.6
2023-02-06T11:09:34.782Z,1.6
2023-02-06T11:10:35.083Z,1.1
2023-02-06T11:11:41.102Z,1.5
2023-02-06T11:12:39.182Z,1.5
2023-02-06T11:13:35.776Z,1.2
2023-02-06T11:14:36.366Z,1.0
2023-02-06T11:15:39.564Z,1.1
2023-02-06T11:16:34.732Z,1.3
2023-02-06T11:17:34.901Z,1.1
2023-02-06T11:18:35.627Z,1.6
2023-02-06T11:19:39.247Z,1.7
2023-02-06T11:20:35.377Z,1.2
2023-02-06T11:21:50.814Z,1.4
2023-02-06T11:22:41.581Z,1.7
2023-02-06T11:23:34.777Z,1.1
2023-02-06T11:24:34.865Z,1.4
2023-02-06T11:25:34.337Z,1.2
2023-02-06T11:26:39.006Z,1.2
2023-02-06T11:27:35.145Z,1.3
2023-02-06T11:28:35.009Z,1.0
2023-02-06T11:29:37.524Z,1.1
2023-02-06T11:30:36.475Z,1.5
2023-02-06T11:31:41.417Z,1.0
2023-02-06T11:32:42.474Z,1.1
2023-02-06T11:33:39.980Z,1.6
2023-02-06T11:34:36.721Z,1.2
2023-02-06T11:35:38.610Z,1.3
2023-02-06T11:36:35.159Z,0.9
2023-02-06T11:37:37.213Z,0.8
2023-02-06T11:38:34.418Z,0.4
2023-02-06T11:39:35.937Z,0.7
2023-02-06T11:40:34.624Z,1.5
2023-02-06T11:41:34.824Z,0.7
2023-02-06T11:42:34.658Z,1.2
2023-02-06T11:43:39.358Z,1.3
2023-02-06T11:44:35.979Z,1.5
2023-02-06T11:45:34.396Z,1.8
2023-02-06T11:46:35.529Z,1.5
2023-02-06T11:47:37.602Z,0.5
2023-02-06T11:48:41.954Z,0.5
2023-02-06T11:49:34.191Z,1.3
2023-02-06T11:50:35.487Z,1.9
2023-02-06T11:51:51.142Z,1.1
2023-02-06T11:52:34.510Z,0.9
2023-02-06T11:53:35.240Z,1.4
2023-02-06T11:54:34.234Z,1.6
2023-02-06T11:55:34.987Z,1.1
2023-02-06T11:56:34.666Z,1.1
2023-02-06T11:57:34.481Z,1.2
2023-02-06T11:58:34.323Z,0.9
2023-02-06T11:59:35.242Z,1.0
2023-02-06T12:00:34.827Z,1.1
2023-02-06T12:01:40.624Z,1.3
2023-02-06T12:02:35.615Z,0.7
2023-02-06T12:03:44.696Z,1.0
2023-02-06T12:04:36.308Z,1.7
2023-02-06T12:05:39.739Z,2.1
2023-02-06T12:06:36.351Z,1.1
2023-02-06T12:07:39.669Z,1.2
2023-02-06T12:08:39.045Z,1.0
2023-02-06T12:09:34.006Z,1.4
2023-02-06T12:10:35.544Z,0.9
2023-02-06T12:11:35.912Z,0.9
2023-02-06T12:12:36.239Z,0.6
2023-02-06T12:13:38.443Z,0.7
2023-02-06T12:14:43.426Z,0.5
2023-02-06T12:15:47.012Z,0.7
2023-02-06T12:16:36.793Z,1.5
2023-02-06T12:17:39.155Z,1.5
2023-02-06T12:18:35.963Z,1.3
2023-02-06T12:19:39.989Z,0.9
2023-02-06T12:20:39.524Z,0.8
2023-02-06T12:21:39.312Z,0.9
2023-02-06T12:22:38.074Z,0.9
2023-02-06T12:23:45.727Z,1.1
2023-02-06T12:24:38.889Z,0.8
2023-02-06T12:25:39.437Z,0.5
2023-02-06T12:26:34.615Z,1.2
2023-02-06T12:27:39.395Z,0.4
2023-02-06T12:28:41.673Z,0.8
2023-02-06T12:29:36.469Z,0.8
2023-02-06T12:30:51.331Z,1.3
2023-02-06T12:31:42.167Z,1.0
2023-02-06T12:32:38.384Z,1.1
2023-02-06T12:33:35.839Z,0.8
2023-02-06T12:34:50.228Z,1.2
2023-02-06T12:35:39.317Z,1.1
2023-02-06T12:36:36.559Z,0.8
2023-02-06T12:37:46.128Z,1.2
2023-02-06T12:38:39.288Z,0.9
2023-02-06T12:39:34.751Z,1.3
2023-02-06T12:40:51.147Z,1.2
2023-02-06T12:41:39.133Z,0.8
2023-02-06T12:42:38.502Z,0.9
2023-02-06T12:43:36.914Z,1.0
2023-02-06T12:44:45.179Z,1.8
2023-02-06T12:45:39.503Z,1.2
2023-02-06T12:46:34.429Z,1.0
2023-02-06T12:47:38.224Z,1.1
2023-02-06T12:48:42.140Z,1.5
2023-02-06T12:49:39.374Z,1.5
2023-02-06T12:50:45.089Z,1.4
2023-02-06T12:51:37.203Z,1.2
2023-02-06T12:52:38.124Z,1.0
2023-02-06T12:53:42.091Z,1.0
2023-02-06T12:54:42.905Z,1.5
2023-02-06T12:55:36.440Z,1.1
2023-02-06T12:56:42.694Z,1.4
2023-02-06T12:57:34.977Z,1.0
2023-02-06T12:58:48.112Z,1.0
2023-02-06T12:59:56.738Z,1.0
2023-02-06T13:00:51.693Z,1.3
2023-02-06T13:01:47.711Z,1.0
2023-02-06T13:02:57.163Z,1.0
2023-02-06T13:03:39.369Z,1.5
2023-02-06T13:04:35.818Z,1.2
2023-02-06T13:05:41.437Z,1.2
2023-02-06T13:06:47.640Z,1.2
2023-02-06T13:07:48.704Z,1.3
2023-02-06T13:08:39.952Z,0.9
2023-02-06T13:09:35.899Z,1.3
2023-02-06T13:10:35.379Z,1.2
2023-02-06T13:11:38.104Z,1.0
2023-02-06T13:12:34.686Z,0.5
2023-02-06T13:13:35.843Z,1.2
2023-02-06T13:14:34.441Z,1.7
2023-02-06T13:15:38.955Z,1.2
2023-02-06T13:16:51.697Z,1.0
2023-02-06T13:17:36.157Z,0.5
2023-02-06T13:18:36.182Z,1.3
2023-02-06T13:19:41.629Z,1.1
2023-02-06T13:20:38.859Z,1.2
2023-02-06T13:21:34.722Z,1.1
2023-02-06T13:22:38.109Z,1.2
2023-02-06T13:23:34.332Z,0.9
2023-02-06T13:24:34.607Z,1.0
2023-02-06T13:25:39.024Z,1.6
2023-02-06T13:26:51.203Z,0.9
2023-02-06T13:27:37.794Z,1.9
2023-02-06T13:28:41.071Z,1.5
2023-02-06T13:29:38.968Z,1.0
2023-02-06T13:30:38.800Z,1.0
2023-02-06T13:31:34.657Z,1.5
2023-02-06T13:32:41.809Z,1.6
2023-02-06T13:33:46.915Z,1.5
2023-02-06T13:34:34.017Z,1.0
2023-02-06T13:35:39.633Z,1.3
2023-02-06T13:36:47.907Z,1.2
2023-02-06T13:37:41.783Z,1.3
2023-02-06T13:38:37.642Z,2.0
2023-02-06T13:39:34.041Z,0.9
2023-02-06T13:40:34.883Z,1.7
2023-02-06T13:41:34.787Z,1.4
2023-02-06T13:42:39.239Z,1.7
2023-02-06T13:43:35.243Z,1.6
2023-02-06T13:44:35.714Z,1.6
2023-02-06T13:45:54.282Z,1.7
2023-02-06T13:46:45.119Z,1.3